sensor_id;sensor_type;location;lat;lon;timestamp;temperature;humidity
45207;DHT22;30950;53.086;21.576;2022-07-29T00:02:00;14.90;99.90
45207;DHT22;30950;53.086;21.576;2022-07-29T00:04:28;14.90;99.90
45207;DHT22;30950;53.086;21.576;2022-07-29T00:06:56;14.90;99.90
45207;DHT22;30950;53.086;21.576;2022-07-29T00:09:23;14.90;99.90
45207;DHT22;30950;53.086;21.576;2022-07-29T00:11:51;14.80;99.90
45207;DHT22;30950;53.086;21.576;2022-07-29T00:14:18;14.80;99.90
45207;DHT22;30950;53.086;21.576;2022-07-29T00:16:45;14.70;99.90
45207;DHT22;30950;53.086;21.576;2022-07-29T00:19:13;14.70;99.90
45207;DHT22;30950;53.086;21.576;2022-07-29T00:21:40;14.60;99.90
45207;DHT22;30950;53.086;21.576;2022-07-29T00:24:08;14.60;99.90
45207;DHT22;30950;53.086;21.576;2022-07-29T00:26:35;14.60;99.90
45207;DHT22;30950;53.086;21.576;2022-07-29T00:29:03;14.50;99.90
45207;DHT22;30950;53.086;21.576;2022-07-29T00:31:51;14.50;99.90
45207;DHT22;30950;53.086;21.576;2022-07-29T00:34:18;14.40;99.90
45207;DHT22;30950;53.086;21.576;2022-07-29T00:37:04;14.40;99.90
45207;DHT22;30950;53.086;21.576;2022-07-29T00:39:33;14.30;99.90
45207;DHT22;30950;53.086;21.576;2022-07-29T00:42:03;14.30;99.90
45207;DHT22;30950;53.086;21.576;2022-07-29T00:44:39;14.30;99.90
45207;DHT22;30950;53.086;21.576;2022-07-29T00:47:07;14.30;99.90
45207;DHT22;30950;53.086;21.576;2022-07-29T00:49:35;14.20;99.90
45207;DHT22;30950;53.086;21.576;2022-07-29T00:52:05;14.20;99.90
45207;DHT22;30950;53.086;21.576;2022-07-29T00:54:34;14.20;99.90
45207;DHT22;30950;53.086;21.576;2022-07-29T00:57:03;14.20;99.90
45207;DHT22;30950;53.086;21.576;2022-07-29T00:59:32;14.10;99.90
45207;DHT22;30950;53.086;21.576;2022-07-29T01:02:02;14.10;99.90
45207;DHT22;30950;53.086;21.576;2022-07-29T01:04:31;14.00;99.90
45207;DHT22;30950;53.086;21.576;2022-07-29T01:07:01;14.00;99.90
45207;DHT22;30950;53.086;21.576;2022-07-29T01:09:31;14.00;99.90
45207;DHT22;30950;53.086;21.576;2022-07-29T01:12:27;14.00;99.90
45207;DHT22;30950;53.086;21.576;2022-07-29T01:14:55;13.90;99.90
45207;DHT22;30950;53.086;21.576;2022-07-29T01:17:28;13.90;99.90
45207;DHT22;30950;53.086;21.576;2022-07-29T01:31:05;13.70;99.90
45207;DHT22;30950;53.086;21.576;2022-07-29T01:33:45;13.70;99.90
45207;DHT22;30950;53.086;21.576;2022-07-29T01:44:37;13.60;99.90
45207;DHT22;30950;53.086;21.576;2022-07-29T01:47:13;13.70;99.90
45207;DHT22;30950;53.086;21.576;2022-07-29T01:49:47;13.60;99.90
45207;DHT22;30950;53.086;21.576;2022-07-29T01:52:34;13.60;99.90
45207;DHT22;30950;53.086;21.576;2022-07-29T01:55:07;13.60;99.90
45207;DHT22;30950;53.086;21.576;2022-07-29T01:57:39;13.50;99.90
45207;DHT22;30950;53.086;21.576;2022-07-29T02:00:08;13.50;99.90
45207;DHT22;30950;53.086;21.576;2022-07-29T02:02:43;13.50;99.90
45207;DHT22;30950;53.086;21.576;2022-07-29T02:05:13;13.50;99.90
45207;DHT22;30950;53.086;21.576;2022-07-29T02:07:43;13.40;99.90
45207;DHT22;30950;53.086;21.576;2022-07-29T02:10:12;13.40;99.90
45207;DHT22;30950;53.086;21.576;2022-07-29T02:12:41;13.40;99.90
45207;DHT22;30950;53.086;21.576;2022-07-29T02:15:16;13.30;99.90
45207;DHT22;30950;53.086;21.576;2022-07-29T02:17:50;13.40;99.90
45207;DHT22;30950;53.086;21.576;2022-07-29T02:20:18;13.30;99.90
45207;DHT22;30950;53.086;21.576;2022-07-29T02:22:47;13.30;99.90
45207;DHT22;30950;53.086;21.576;2022-07-29T02:25:17;13.30;99.90
45207;DHT22;30950;53.086;21.576;2022-07-29T02:27:45;13.20;99.90
45207;DHT22;30950;53.086;21.576;2022-07-29T02:30:14;13.20;99.90
45207;DHT22;30950;53.086;21.576;2022-07-29T02:32:41;13.20;99.90
45207;DHT22;30950;53.086;21.576;2022-07-29T02:35:14;13.20;99.90
45207;DHT22;30950;53.086;21.576;2022-07-29T02:37:44;13.10;99.90
45207;DHT22;30950;53.086;21.576;2022-07-29T02:40:34;13.10;99.90
45207;DHT22;30950;53.086;21.576;2022-07-29T02:43:06;13.10;99.90
45207;DHT22;30950;53.086;21.576;2022-07-29T02:45:33;13.00;99.90
45207;DHT22;30950;53.086;21.576;2022-07-29T02:48:08;13.00;99.90
45207;DHT22;30950;53.086;21.576;2022-07-29T02:50:46;12.90;99.90
45207;DHT22;30950;53.086;21.576;2022-07-29T02:53:18;12.90;99.90
45207;DHT22;30950;53.086;21.576;2022-07-29T02:55:55;12.90;99.90
45207;DHT22;30950;53.086;21.576;2022-07-29T02:58:32;12.90;99.90
45207;DHT22;30950;53.086;21.576;2022-07-29T03:01:08;12.90;99.90
45207;DHT22;30950;53.086;21.576;2022-07-29T03:03:37;12.80;99.90
45207;DHT22;30950;53.086;21.576;2022-07-29T03:06:05;12.80;99.90
45207;DHT22;30950;53.086;21.576;2022-07-29T03:08:34;12.80;99.90
45207;DHT22;30950;53.086;21.576;2022-07-29T03:11:02;12.80;99.90
45207;DHT22;30950;53.086;21.576;2022-07-29T03:13:30;12.80;99.90
45207;DHT22;30950;53.086;21.576;2022-07-29T03:15:58;12.80;99.90
45207;DHT22;30950;53.086;21.576;2022-07-29T03:18:27;12.80;99.90
45207;DHT22;30950;53.086;21.576;2022-07-29T03:20:55;12.80;99.90
45207;DHT22;30950;53.086;21.576;2022-07-29T03:23:23;12.80;99.90
45207;DHT22;30950;53.086;21.576;2022-07-29T03:25:51;12.80;99.90
45207;DHT22;30950;53.086;21.576;2022-07-29T03:28:20;12.80;99.90
45207;DHT22;30950;53.086;21.576;2022-07-29T03:30:53;12.90;99.90
45207;DHT22;30950;53.086;21.576;2022-07-29T03:33:21;12.90;99.90
45207;DHT22;30950;53.086;21.576;2022-07-29T03:35:48;12.90;99.90
45207;DHT22;30950;53.086;21.576;2022-07-29T03:38:15;13.00;99.90
45207;DHT22;30950;53.086;21.576;2022-07-29T03:40:48;13.00;99.90
45207;DHT22;30950;53.086;21.576;2022-07-29T03:43:17;13.00;99.90
45207;DHT22;30950;53.086;21.576;2022-07-29T03:45:49;13.10;99.90
45207;DHT22;30950;53.086;21.576;2022-07-29T03:48:20;13.10;99.90
45207;DHT22;30950;53.086;21.576;2022-07-29T03:50:50;13.20;99.90
45207;DHT22;30950;53.086;21.576;2022-07-29T03:53:18;13.10;99.90
45207;DHT22;30950;53.086;21.576;2022-07-29T03:55:48;13.20;99.90
45207;DHT22;30950;53.086;21.576;2022-07-29T03:58:16;13.20;99.90
45207;DHT22;30950;53.086;21.576;2022-07-29T04:00:46;13.30;99.90
45207;DHT22;30950;53.086;21.576;2022-07-29T04:03:15;13.30;99.90
45207;DHT22;30950;53.086;21.576;2022-07-29T04:05:43;13.40;99.90
45207;DHT22;30950;53.086;21.576;2022-07-29T04:08:10;13.40;99.90
45207;DHT22;30950;53.086;21.576;2022-07-29T04:10:38;13.40;99.90
45207;DHT22;30950;53.086;21.576;2022-07-29T04:13:05;13.50;99.90
45207;DHT22;30950;53.086;21.576;2022-07-29T04:15:32;13.50;99.90
45207;DHT22;30950;53.086;21.576;2022-07-29T04:18:00;13.60;99.90
45207;DHT22;30950;53.086;21.576;2022-07-29T04:20:27;13.60;99.90
45207;DHT22;30950;53.086;21.576;2022-07-29T04:22:54;13.60;99.90
45207;DHT22;30950;53.086;21.576;2022-07-29T04:25:22;13.70;99.90
45207;DHT22;30950;53.086;21.576;2022-07-29T04:27:50;13.70;99.90
45207;DHT22;30950;53.086;21.576;2022-07-29T04:30:31;13.80;99.90
45207;DHT22;30950;53.086;21.576;2022-07-29T04:33:00;13.80;99.90
45207;DHT22;30950;53.086;21.576;2022-07-29T04:35:29;13.80;99.90
45207;DHT22;30950;53.086;21.576;2022-07-29T04:38:06;13.80;99.90
45207;DHT22;30950;53.086;21.576;2022-07-29T04:40:41;13.90;99.90
45207;DHT22;30950;53.086;21.576;2022-07-29T04:43:09;13.90;99.90
45207;DHT22;30950;53.086;21.576;2022-07-29T04:45:38;14.00;99.90
45207;DHT22;30950;53.086;21.576;2022-07-29T04:48:05;14.00;99.90
45207;DHT22;30950;53.086;21.576;2022-07-29T04:50:33;14.10;99.90
45207;DHT22;30950;53.086;21.576;2022-07-29T04:53:00;14.20;99.90
45207;DHT22;30950;53.086;21.576;2022-07-29T04:55:27;14.20;99.90
45207;DHT22;30950;53.086;21.576;2022-07-29T04:57:55;14.30;99.90
45207;DHT22;30950;53.086;21.576;2022-07-29T05:00:22;14.30;99.90
45207;DHT22;30950;53.086;21.576;2022-07-29T05:02:59;14.40;99.90
45207;DHT22;30950;53.086;21.576;2022-07-29T05:05:26;14.50;99.90
45207;DHT22;30950;53.086;21.576;2022-07-29T05:07:53;14.50;99.90
45207;DHT22;30950;53.086;21.576;2022-07-29T05:10:21;14.50;99.90
45207;DHT22;30950;53.086;21.576;2022-07-29T05:12:48;14.60;99.90
45207;DHT22;30950;53.086;21.576;2022-07-29T05:15:15;14.70;99.90
45207;DHT22;30950;53.086;21.576;2022-07-29T05:17:44;14.80;99.90
45207;DHT22;30950;53.086;21.576;2022-07-29T05:20:11;14.90;99.90
45207;DHT22;30950;53.086;21.576;2022-07-29T05:22:39;14.90;99.90
45207;DHT22;30950;53.086;21.576;2022-07-29T05:25:07;15.10;99.90
45207;DHT22;30950;53.086;21.576;2022-07-29T05:27:36;15.20;99.90
45207;DHT22;30950;53.086;21.576;2022-07-29T05:30:04;15.30;99.90
45207;DHT22;30950;53.086;21.576;2022-07-29T05:32:31;15.30;99.90
45207;DHT22;30950;53.086;21.576;2022-07-29T05:34:58;15.50;99.90
45207;DHT22;30950;53.086;21.576;2022-07-29T05:37:26;15.50;99.90
45207;DHT22;30950;53.086;21.576;2022-07-29T05:39:53;15.60;99.90
45207;DHT22;30950;53.086;21.576;2022-07-29T05:42:24;15.70;99.90
45207;DHT22;30950;53.086;21.576;2022-07-29T05:44:51;15.80;99.90
45207;DHT22;30950;53.086;21.576;2022-07-29T05:47:19;15.80;99.90
45207;DHT22;30950;53.086;21.576;2022-07-29T05:49:46;15.90;99.90
45207;DHT22;30950;53.086;21.576;2022-07-29T05:52:14;16.00;99.90
45207;DHT22;30950;53.086;21.576;2022-07-29T05:54:41;16.10;99.90
45207;DHT22;30950;53.086;21.576;2022-07-29T05:57:15;16.20;99.90
45207;DHT22;30950;53.086;21.576;2022-07-29T05:59:44;16.30;99.90
45207;DHT22;30950;53.086;21.576;2022-07-29T06:02:11;16.30;99.90
45207;DHT22;30950;53.086;21.576;2022-07-29T06:04:38;16.40;99.90
45207;DHT22;30950;53.086;21.576;2022-07-29T06:07:06;16.50;99.90
45207;DHT22;30950;53.086;21.576;2022-07-29T06:09:34;16.60;99.90
45207;DHT22;30950;53.086;21.576;2022-07-29T06:12:03;16.70;99.90
45207;DHT22;30950;53.086;21.576;2022-07-29T06:14:30;16.80;99.90
45207;DHT22;30950;53.086;21.576;2022-07-29T06:16:57;16.90;99.90
45207;DHT22;30950;53.086;21.576;2022-07-29T06:19:25;17.00;99.90
45207;DHT22;30950;53.086;21.576;2022-07-29T06:21:53;17.10;99.90
45207;DHT22;30950;53.086;21.576;2022-07-29T06:24:20;17.20;99.90
45207;DHT22;30950;53.086;21.576;2022-07-29T06:26:47;17.30;99.90
45207;DHT22;30950;53.086;21.576;2022-07-29T06:29:14;17.40;99.90
45207;DHT22;30950;53.086;21.576;2022-07-29T06:31:42;17.50;99.90
45207;DHT22;30950;53.086;21.576;2022-07-29T06:34:09;17.60;99.90
45207;DHT22;30950;53.086;21.576;2022-07-29T06:36:37;17.70;99.90
45207;DHT22;30950;53.086;21.576;2022-07-29T06:39:07;17.80;99.90
45207;DHT22;30950;53.086;21.576;2022-07-29T06:41:35;17.90;99.90
45207;DHT22;30950;53.086;21.576;2022-07-29T06:44:09;18.00;99.90
45207;DHT22;30950;53.086;21.576;2022-07-29T06:46:36;18.10;99.90
45207;DHT22;30950;53.086;21.576;2022-07-29T06:49:04;18.20;99.90
45207;DHT22;30950;53.086;21.576;2022-07-29T06:51:32;18.30;99.90
45207;DHT22;30950;53.086;21.576;2022-07-29T06:53:59;18.40;99.90
45207;DHT22;30950;53.086;21.576;2022-07-29T06:56:33;18.40;99.90
45207;DHT22;30950;53.086;21.576;2022-07-29T06:59:07;18.50;99.90
45207;DHT22;30950;53.086;21.576;2022-07-29T07:01:36;18.50;99.90
45207;DHT22;30950;53.086;21.576;2022-07-29T07:04:04;18.60;99.90
45207;DHT22;30950;53.086;21.576;2022-07-29T07:06:31;18.60;99.90
45207;DHT22;30950;53.086;21.576;2022-07-29T07:08:59;18.70;99.90
45207;DHT22;30950;53.086;21.576;2022-07-29T07:11:26;18.70;99.90
45207;DHT22;30950;53.086;21.576;2022-07-29T07:13:54;18.80;99.90
45207;DHT22;30950;53.086;21.576;2022-07-29T07:16:28;18.80;99.90
45207;DHT22;30950;53.086;21.576;2022-07-29T07:18:56;18.80;99.90
45207;DHT22;30950;53.086;21.576;2022-07-29T07:21:23;18.90;99.90
45207;DHT22;30950;53.086;21.576;2022-07-29T07:23:50;19.00;99.90
45207;DHT22;30950;53.086;21.576;2022-07-29T07:26:18;19.10;99.90
45207;DHT22;30950;53.086;21.576;2022-07-29T07:28:45;19.10;99.80
45207;DHT22;30950;53.086;21.576;2022-07-29T07:31:12;19.20;99.40
45207;DHT22;30950;53.086;21.576;2022-07-29T07:33:41;19.20;98.30
45207;DHT22;30950;53.086;21.576;2022-07-29T07:36:08;19.20;97.70
45207;DHT22;30950;53.086;21.576;2022-07-29T07:38:36;19.20;98.10
45207;DHT22;30950;53.086;21.576;2022-07-29T07:41:03;19.30;98.20
45207;DHT22;30950;53.086;21.576;2022-07-29T07:43:30;19.40;97.30
45207;DHT22;30950;53.086;21.576;2022-07-29T07:45:58;19.40;97.30
45207;DHT22;30950;53.086;21.576;2022-07-29T07:48:25;19.40;97.10
45207;DHT22;30950;53.086;21.576;2022-07-29T07:50:52;19.50;97.10
45207;DHT22;30950;53.086;21.576;2022-07-29T07:53:21;19.60;96.30
45207;DHT22;30950;53.086;21.576;2022-07-29T07:55:49;19.70;95.00
45207;DHT22;30950;53.086;21.576;2022-07-29T07:58:36;19.80;94.80
45207;DHT22;30950;53.086;21.576;2022-07-29T08:01:04;19.80;94.30
45207;DHT22;30950;53.086;21.576;2022-07-29T08:03:31;19.90;93.90
45207;DHT22;30950;53.086;21.576;2022-07-29T08:05:59;19.90;93.10
45207;DHT22;30950;53.086;21.576;2022-07-29T08:08:27;20.00;92.70
45207;DHT22;30950;53.086;21.576;2022-07-29T08:10:54;20.10;91.90
45207;DHT22;30950;53.086;21.576;2022-07-29T08:13:29;20.20;91.20
45207;DHT22;30950;53.086;21.576;2022-07-29T08:15:58;20.20;90.40
45207;DHT22;30950;53.086;21.576;2022-07-29T08:18:29;20.30;90.40
45207;DHT22;30950;53.086;21.576;2022-07-29T08:20:58;20.30;89.20
45207;DHT22;30950;53.086;21.576;2022-07-29T08:23:25;20.30;88.30
45207;DHT22;30950;53.086;21.576;2022-07-29T08:26:12;20.40;87.90
45207;DHT22;30950;53.086;21.576;2022-07-29T08:28:42;20.40;86.00
45207;DHT22;30950;53.086;21.576;2022-07-29T08:31:13;20.50;86.20
45207;DHT22;30950;53.086;21.576;2022-07-29T08:33:41;20.50;86.80
45207;DHT22;30950;53.086;21.576;2022-07-29T08:36:09;20.60;85.60
45207;DHT22;30950;53.086;21.576;2022-07-29T08:38:36;20.70;85.30
45207;DHT22;30950;53.086;21.576;2022-07-29T08:41:04;20.80;84.50
45207;DHT22;30950;53.086;21.576;2022-07-29T08:43:31;20.90;83.40
45207;DHT22;30950;53.086;21.576;2022-07-29T08:46:00;21.00;80.70
45207;DHT22;30950;53.086;21.576;2022-07-29T08:48:27;21.00;80.80
45207;DHT22;30950;53.086;21.576;2022-07-29T08:50:56;21.10;81.00
45207;DHT22;30950;53.086;21.576;2022-07-29T08:53:26;21.10;79.30
45207;DHT22;30950;53.086;21.576;2022-07-29T08:55:55;21.20;78.40
45207;DHT22;30950;53.086;21.576;2022-07-29T08:58:23;21.20;77.20
45207;DHT22;30950;53.086;21.576;2022-07-29T09:00:53;21.20;76.90
45207;DHT22;30950;53.086;21.576;2022-07-29T09:03:25;21.30;76.30
45207;DHT22;30950;53.086;21.576;2022-07-29T09:05:54;21.40;75.90
45207;DHT22;30950;53.086;21.576;2022-07-29T09:08:22;21.40;73.30
45207;DHT22;30950;53.086;21.576;2022-07-29T09:10:50;21.40;73.40
45207;DHT22;30950;53.086;21.576;2022-07-29T09:13:18;21.40;72.80
45207;DHT22;30950;53.086;21.576;2022-07-29T09:15:46;21.50;72.60
45207;DHT22;30950;53.086;21.576;2022-07-29T09:21:05;21.70;72.70
45207;DHT22;30950;53.086;21.576;2022-07-29T09:26:30;21.80;70.10
45207;DHT22;30950;53.086;21.576;2022-07-29T09:28:58;21.80;69.80
45207;DHT22;30950;53.086;21.576;2022-07-29T09:31:37;21.90;70.50
45207;DHT22;30950;53.086;21.576;2022-07-29T09:34:07;22.00;68.30
45207;DHT22;30950;53.086;21.576;2022-07-29T09:36:44;22.10;68.50
45207;DHT22;30950;53.086;21.576;2022-07-29T09:39:13;22.20;67.40
45207;DHT22;30950;53.086;21.576;2022-07-29T09:41:54;22.20;68.30
45207;DHT22;30950;53.086;21.576;2022-07-29T09:44:24;22.30;67.40
45207;DHT22;30950;53.086;21.576;2022-07-29T09:46:59;22.40;67.70
45207;DHT22;30950;53.086;21.576;2022-07-29T09:49:51;22.40;66.40
45207;DHT22;30950;53.086;21.576;2022-07-29T09:52:19;22.60;66.70
45207;DHT22;30950;53.086;21.576;2022-07-29T09:54:47;22.60;65.60
45207;DHT22;30950;53.086;21.576;2022-07-29T09:57:26;22.60;64.80
45207;DHT22;30950;53.086;21.576;2022-07-29T10:02:40;22.70;64.20
45207;DHT22;30950;53.086;21.576;2022-07-29T10:05:24;22.80;64.10
45207;DHT22;30950;53.086;21.576;2022-07-29T10:08:02;22.80;63.90
45207;DHT22;30950;53.086;21.576;2022-07-29T10:10:35;22.90;64.60
45207;DHT22;30950;53.086;21.576;2022-07-29T10:13:05;23.00;64.20
45207;DHT22;30950;53.086;21.576;2022-07-29T10:15:41;23.10;63.30
45207;DHT22;30950;53.086;21.576;2022-07-29T10:18:12;23.20;62.10
45207;DHT22;30950;53.086;21.576;2022-07-29T10:20:40;23.30;61.10
45207;DHT22;30950;53.086;21.576;2022-07-29T10:23:09;23.30;61.10
45207;DHT22;30950;53.086;21.576;2022-07-29T10:25:36;23.40;60.60
45207;DHT22;30950;53.086;21.576;2022-07-29T10:28:05;23.50;61.30
45207;DHT22;30950;53.086;21.576;2022-07-29T10:30:33;23.50;61.20
45207;DHT22;30950;53.086;21.576;2022-07-29T10:44:18;24.30;58.40
45207;DHT22;30950;53.086;21.576;2022-07-29T10:46:51;24.40;57.90
45207;DHT22;30950;53.086;21.576;2022-07-29T10:49:22;24.40;56.90
45207;DHT22;30950;53.086;21.576;2022-07-29T10:51:55;24.50;56.40
45207;DHT22;30950;53.086;21.576;2022-07-29T10:59:50;24.70;55.70
45207;DHT22;30950;53.086;21.576;2022-07-29T11:05:10;24.90;55.10
45207;DHT22;30950;53.086;21.576;2022-07-29T11:07:40;24.90;54.90
45207;DHT22;30950;53.086;21.576;2022-07-29T11:10:28;25.10;53.40
45207;DHT22;30950;53.086;21.576;2022-07-29T11:12:58;25.10;53.90
45207;DHT22;30950;53.086;21.576;2022-07-29T11:15:25;25.10;54.40
45207;DHT22;30950;53.086;21.576;2022-07-29T11:18:13;25.20;54.90
45207;DHT22;30950;53.086;21.576;2022-07-29T11:20:48;25.20;53.90
45207;DHT22;30950;53.086;21.576;2022-07-29T11:25:47;25.40;53.80
45207;DHT22;30950;53.086;21.576;2022-07-29T11:28:34;25.40;53.00
45207;DHT22;30950;53.086;21.576;2022-07-29T11:31:03;25.30;51.10
45207;DHT22;30950;53.086;21.576;2022-07-29T11:33:33;25.30;50.90
45207;DHT22;30950;53.086;21.576;2022-07-29T11:36:20;25.10;51.10
45207;DHT22;30950;53.086;21.576;2022-07-29T11:40:08;25.10;51.00
45207;DHT22;30950;53.086;21.576;2022-07-29T11:45:12;25.20;51.60
45207;DHT22;30950;53.086;21.576;2022-07-29T11:48:03;25.30;52.00
45207;DHT22;30950;53.086;21.576;2022-07-29T11:50:52;25.30;51.90
45207;DHT22;30950;53.086;21.576;2022-07-29T11:53:20;25.40;52.80
45207;DHT22;30950;53.086;21.576;2022-07-29T11:55:54;25.40;52.40
45207;DHT22;30950;53.086;21.576;2022-07-29T11:58:24;25.50;52.60
45207;DHT22;30950;53.086;21.576;2022-07-29T12:00:53;25.50;52.20
45207;DHT22;30950;53.086;21.576;2022-07-29T12:03:26;25.50;51.30
45207;DHT22;30950;53.086;21.576;2022-07-29T12:06:14;25.50;51.40
45207;DHT22;30950;53.086;21.576;2022-07-29T12:08:44;25.50;52.40
45207;DHT22;30950;53.086;21.576;2022-07-29T12:11:20;25.50;51.80
45207;DHT22;30950;53.086;21.576;2022-07-29T12:13:50;25.50;51.30
45207;DHT22;30950;53.086;21.576;2022-07-29T12:16:19;25.50;52.10
45207;DHT22;30950;53.086;21.576;2022-07-29T12:18:57;25.60;52.30
45207;DHT22;30950;53.086;21.576;2022-07-29T12:21:25;25.60;52.40
45207;DHT22;30950;53.086;21.576;2022-07-29T12:23:55;25.70;51.90
45207;DHT22;30950;53.086;21.576;2022-07-29T12:26:33;25.70;51.90
45207;DHT22;30950;53.086;21.576;2022-07-29T12:29:02;25.80;51.90
45207;DHT22;30950;53.086;21.576;2022-07-29T12:31:29;25.80;52.10
45207;DHT22;30950;53.086;21.576;2022-07-29T12:34:12;25.90;52.20
45207;DHT22;30950;53.086;21.576;2022-07-29T12:36:41;25.90;52.30
45207;DHT22;30950;53.086;21.576;2022-07-29T12:39:10;25.90;52.00
45207;DHT22;30950;53.086;21.576;2022-07-29T12:41:38;25.90;52.20
45207;DHT22;30950;53.086;21.576;2022-07-29T12:44:05;25.90;51.90
45207;DHT22;30950;53.086;21.576;2022-07-29T12:46:33;26.00;52.20
45207;DHT22;30950;53.086;21.576;2022-07-29T12:49:01;26.00;52.00
45207;DHT22;30950;53.086;21.576;2022-07-29T12:51:34;26.00;52.40
45207;DHT22;30950;53.086;21.576;2022-07-29T12:56:31;26.40;52.10
45207;DHT22;30950;53.086;21.576;2022-07-29T12:59:19;26.70;52.00
45207;DHT22;30950;53.086;21.576;2022-07-29T13:01:49;26.90;52.00
45207;DHT22;30950;53.086;21.576;2022-07-29T13:07:06;27.20;50.40
45207;DHT22;30950;53.086;21.576;2022-07-29T13:09:44;27.10;50.60
45207;DHT22;30950;53.086;21.576;2022-07-29T13:12:14;27.00;51.10
45207;DHT22;30950;53.086;21.576;2022-07-29T13:14:44;27.10;51.30
45207;DHT22;30950;53.086;21.576;2022-07-29T13:17:22;27.00;50.90
45207;DHT22;30950;53.086;21.576;2022-07-29T13:20:07;27.00;51.00
45207;DHT22;30950;53.086;21.576;2022-07-29T13:22:42;26.90;50.20
45207;DHT22;30950;53.086;21.576;2022-07-29T13:25:10;26.70;50.50
45207;DHT22;30950;53.086;21.576;2022-07-29T13:27:38;26.80;51.20
45207;DHT22;30950;53.086;21.576;2022-07-29T13:30:08;26.80;51.00
45207;DHT22;30950;53.086;21.576;2022-07-29T13:32:36;27.00;50.50
45207;DHT22;30950;53.086;21.576;2022-07-29T13:35:06;27.00;50.90
45207;DHT22;30950;53.086;21.576;2022-07-29T13:37:35;27.10;51.40
45207;DHT22;30950;53.086;21.576;2022-07-29T13:40:07;27.10;51.10
45207;DHT22;30950;53.086;21.576;2022-07-29T13:42:35;27.00;50.80
45207;DHT22;30950;53.086;21.576;2022-07-29T13:45:03;27.10;51.10
45207;DHT22;30950;53.086;21.576;2022-07-29T13:47:31;27.20;51.00
45207;DHT22;30950;53.086;21.576;2022-07-29T13:50:04;27.40;51.10
45207;DHT22;30950;53.086;21.576;2022-07-29T13:52:33;27.60;50.30
45207;DHT22;30950;53.086;21.576;2022-07-29T13:55:02;27.90;49.60
45207;DHT22;30950;53.086;21.576;2022-07-29T13:57:29;28.00;49.20
45207;DHT22;30950;53.086;21.576;2022-07-29T13:59:57;28.00;48.80
45207;DHT22;30950;53.086;21.576;2022-07-29T14:02:24;27.90;49.20
45207;DHT22;30950;53.086;21.576;2022-07-29T14:04:55;27.60;48.90
45207;DHT22;30950;53.086;21.576;2022-07-29T14:07:23;27.40;48.80
45207;DHT22;30950;53.086;21.576;2022-07-29T14:09:50;27.20;49.40
45207;DHT22;30950;53.086;21.576;2022-07-29T14:12:18;27.00;49.80
45207;DHT22;30950;53.086;21.576;2022-07-29T14:14:46;26.90;49.70
45207;DHT22;30950;53.086;21.576;2022-07-29T14:17:14;26.80;49.90
45207;DHT22;30950;53.086;21.576;2022-07-29T14:19:41;26.90;50.00
45207;DHT22;30950;53.086;21.576;2022-07-29T14:22:09;27.00;50.50
45207;DHT22;30950;53.086;21.576;2022-07-29T14:24:37;27.20;50.50
45207;DHT22;30950;53.086;21.576;2022-07-29T14:27:05;27.30;49.90
45207;DHT22;30950;53.086;21.576;2022-07-29T14:29:34;27.20;49.90
45207;DHT22;30950;53.086;21.576;2022-07-29T14:32:09;27.40;50.00
45207;DHT22;30950;53.086;21.576;2022-07-29T14:34:42;27.80;49.30
45207;DHT22;30950;53.086;21.576;2022-07-29T14:37:09;28.30;49.20
45207;DHT22;30950;53.086;21.576;2022-07-29T14:39:42;28.90;49.10
45207;DHT22;30950;53.086;21.576;2022-07-29T14:42:10;29.60;48.50
45207;DHT22;30950;53.086;21.576;2022-07-29T14:44:39;30.10;47.50
45207;DHT22;30950;53.086;21.576;2022-07-29T14:47:10;30.60;47.10
45207;DHT22;30950;53.086;21.576;2022-07-29T14:49:37;31.10;46.70
45207;DHT22;30950;53.086;21.576;2022-07-29T14:52:05;31.50;46.00
45207;DHT22;30950;53.086;21.576;2022-07-29T14:54:32;31.60;45.40
45207;DHT22;30950;53.086;21.576;2022-07-29T14:56:59;31.60;44.20
45207;DHT22;30950;53.086;21.576;2022-07-29T14:59:27;31.40;44.00
45207;DHT22;30950;53.086;21.576;2022-07-29T15:01:55;31.40;44.20
45207;DHT22;30950;53.086;21.576;2022-07-29T15:04:23;31.40;44.40
45207;DHT22;30950;53.086;21.576;2022-07-29T15:06:50;31.60;44.00
45207;DHT22;30950;53.086;21.576;2022-07-29T15:09:18;31.60;44.10
45207;DHT22;30950;53.086;21.576;2022-07-29T15:11:46;31.70;43.70
45207;DHT22;30950;53.086;21.576;2022-07-29T15:14:13;31.70;43.50
45207;DHT22;30950;53.086;21.576;2022-07-29T15:16:40;31.70;43.40
45207;DHT22;30950;53.086;21.576;2022-07-29T15:19:10;31.70;43.90
45207;DHT22;30950;53.086;21.576;2022-07-29T15:21:38;31.80;44.10
45207;DHT22;30950;53.086;21.576;2022-07-29T15:24:16;31.90;44.10
45207;DHT22;30950;53.086;21.576;2022-07-29T15:26:44;31.90;44.10
45207;DHT22;30950;53.086;21.576;2022-07-29T15:29:11;31.90;44.10
45207;DHT22;30950;53.086;21.576;2022-07-29T15:31:40;31.60;43.40
45207;DHT22;30950;53.086;21.576;2022-07-29T15:34:08;31.20;43.40
45207;DHT22;30950;53.086;21.576;2022-07-29T15:36:35;31.00;44.20
45207;DHT22;30950;53.086;21.576;2022-07-29T15:39:23;30.80;44.10
45207;DHT22;30950;53.086;21.576;2022-07-29T15:41:51;30.80;44.30
45207;DHT22;30950;53.086;21.576;2022-07-29T15:44:21;30.80;44.60
45207;DHT22;30950;53.086;21.576;2022-07-29T15:46:48;30.70;44.10
45207;DHT22;30950;53.086;21.576;2022-07-29T15:49:38;30.70;44.10
45207;DHT22;30950;53.086;21.576;2022-07-29T15:52:17;30.70;44.10
45207;DHT22;30950;53.086;21.576;2022-07-29T15:54:54;30.70;44.30
45207;DHT22;30950;53.086;21.576;2022-07-29T15:57:23;30.50;44.10
45207;DHT22;30950;53.086;21.576;2022-07-29T15:59:51;30.30;44.10
45207;DHT22;30950;53.086;21.576;2022-07-29T16:02:18;30.00;44.40
45207;DHT22;30950;53.086;21.576;2022-07-29T16:04:46;29.80;44.70
45207;DHT22;30950;53.086;21.576;2022-07-29T16:07:18;29.40;44.50
45207;DHT22;30950;53.086;21.576;2022-07-29T16:09:45;29.20;44.50
45207;DHT22;30950;53.086;21.576;2022-07-29T16:12:19;29.10;44.70
45207;DHT22;30950;53.086;21.576;2022-07-29T16:14:46;29.00;45.10
45207;DHT22;30950;53.086;21.576;2022-07-29T16:17:16;28.90;45.60
45207;DHT22;30950;53.086;21.576;2022-07-29T16:19:43;28.80;45.70
45207;DHT22;30950;53.086;21.576;2022-07-29T16:22:12;28.60;45.90
45207;DHT22;30950;53.086;21.576;2022-07-29T16:24:39;28.50;46.20
45207;DHT22;30950;53.086;21.576;2022-07-29T16:27:10;28.50;46.50
45207;DHT22;30950;53.086;21.576;2022-07-29T16:29:37;28.60;46.90
45207;DHT22;30950;53.086;21.576;2022-07-29T16:32:05;28.70;46.60
45207;DHT22;30950;53.086;21.576;2022-07-29T16:34:33;28.70;46.50